createdAt,value
2023-03-16T00:03:57.145Z,-0.6
2023-03-16T00:08:54.158Z,-0.48
2023-03-16T00:13:53.924Z,-0.49
2023-03-16T00:18:55.637Z,-0.56
2023-03-16T00:23:52.583Z,-0.67
2023-03-16T00:28:51.987Z,-0.77
2023-03-16T00:33:52.165Z,-0.75
2023-03-16T00:38:50.255Z,-0.74
2023-03-16T00:43:39.264Z,-0.63
2023-03-16T00:48:38.687Z,-0.54
2023-03-16T00:53:38.486Z,-0.54
2023-03-16T00:58:36.091Z,-0.57
2023-03-16T01:03:35.849Z,-0.49
2023-03-16T01:08:35.725Z,-0.44
2023-03-16T01:13:36.877Z,-0.43
2023-03-16T01:18:33.330Z,-0.44
2023-03-16T01:23:33.573Z,-0.37
2023-03-16T01:28:32.908Z,-0.36
2023-03-16T01:33:32.941Z,-0.43
2023-03-16T01:38:30.361Z,-0.47
2023-03-16T01:43:30.465Z,-0.52
2023-03-16T01:48:29.717Z,-0.52
2023-03-16T01:53:29.662Z,-0.52
2023-03-16T01:58:28.926Z,-0.52
2023-03-16T01:59:50.113Z,-0.52
2023-03-16T02:04:50.164Z,-0.57
2023-03-16T02:09:50.017Z,-0.65
2023-03-16T02:14:51.556Z,-0.72
2023-03-16T02:19:47.036Z,-0.74
2023-03-16T02:24:47.198Z,-0.6
2023-03-16T02:29:46.490Z,-0.69
2023-03-16T02:34:58.106Z,-0.68
2023-03-16T02:39:55.052Z,-0.56
2023-03-16T02:44:56.713Z,-0.67
2023-03-16T02:49:56.555Z,-0.8
2023-03-16T02:54:53.584Z,-0.85
2023-03-16T02:59:11.552Z,-0.93
2023-03-16T03:04:11.065Z,-0.97
2023-03-16T03:09:10.378Z,-0.96
2023-03-16T03:14:10.116Z,-0.95
2023-03-16T03:19:09.087Z,-0.87
2023-03-16T03:24:08.679Z,-0.92
2023-03-16T03:29:09.805Z,-0.9
2023-03-16T03:34:06.227Z,-0.79
2023-03-16T03:39:05.914Z,-0.74
2023-03-16T03:44:05.575Z,-0.72
2023-03-16T03:49:05.406Z,-0.75
2023-03-16T03:54:02.841Z,-0.71
2023-03-16T03:58:49.593Z,-0.66
2023-03-16T04:03:48.978Z,-0.55
2023-03-16T04:08:48.725Z,-0.37
2023-03-16T04:13:48.526Z,-0.4
2023-03-16T04:18:47.793Z,-0.41
2023-03-16T04:23:47.785Z,-0.44
2023-03-16T04:28:47.636Z,-0.47
2023-03-16T04:33:55.819Z,-0.43
2023-03-16T04:38:55.216Z,-0.44
2023-03-16T04:43:55.708Z,-0.55
2023-03-16T04:48:54.564Z,-0.68
2023-03-16T04:53:54.798Z,-0.79
2023-03-16T04:58:54.567Z,-0.86
2023-03-16T05:03:55.298Z,-0.92
2023-03-16T05:08:52.559Z,-0.99
2023-03-16T05:13:52.016Z,-1.09
2023-03-16T05:18:53.939Z,-1.2
2023-03-16T05:23:50.678Z,-1.29
2023-03-16T05:28:39.795Z,-1.29
2023-03-16T05:33:39.465Z,-1.32
2023-03-16T05:38:40.932Z,-1.34
2023-03-16T05:43:37.128Z,-1.32
2023-03-16T05:48:37.059Z,-1.13
2023-03-16T05:53:36.476Z,-0.96
2023-03-16T05:58:36.828Z,-0.89
2023-03-16T05:59:58.315Z,-0.92
2023-03-16T06:04:57.635Z,-0.88
2023-03-16T06:09:57.078Z,-0.82
2023-03-16T06:14:58.317Z,-0.83
2023-03-16T06:19:54.660Z,-0.82
2023-03-16T06:24:54.722Z,-0.8
2023-03-16T06:29:54.103Z,-0.7
2023-03-16T06:34:54.191Z,-0.52
2023-03-16T06:39:52.021Z,-0.39
2023-03-16T06:44:52.102Z,-0.24
2023-03-16T06:49:51.217Z,-0.06
2023-03-16T06:54:51.095Z,0.15
2023-03-16T06:58:57.597Z,0.39
2023-03-16T07:03:57.843Z,0.97
2023-03-16T07:08:58.430Z,1.44
2023-03-16T07:13:58.351Z,2
2023-03-16T07:18:59.876Z,2.39
2023-03-16T07:23:56.815Z,2.94
2023-03-16T07:28:58.165Z,3.31
2023-03-16T07:33:57.029Z,3.95
2023-03-16T07:38:56.517Z,4.08
2023-03-16T07:43:56.785Z,4.46
2023-03-16T07:48:57.556Z,4.67
2023-03-16T07:53:57.442Z,5.13
2023-03-16T07:58:55.223Z,5.42
2023-03-16T08:03:55.456Z,5.7
2023-03-16T08:08:55.107Z,6.02
2023-03-16T08:13:54.876Z,6.36
2023-03-16T08:18:54.459Z,6.57
2023-03-16T08:23:54.160Z,6.78
2023-03-16T08:28:54.726Z,7.3
2023-03-16T08:33:54.247Z,7.93
2023-03-16T08:39:06.366Z,7.92
2023-03-16T08:43:52.455Z,8.21
2023-03-16T08:48:52.674Z,8.42
2023-03-16T08:53:52.736Z,8.67
2023-03-16T08:58:52.961Z,8.53
2023-03-16T09:03:50.642Z,8.57
2023-03-16T09:08:50.441Z,8.64
2023-03-16T09:13:52.475Z,8.71
2023-03-16T09:18:51.513Z,8.64
2023-03-16T09:23:47.756Z,8.66
2023-03-16T09:28:47.809Z,8.91
2023-03-16T09:33:47.153Z,8.92
2023-03-16T09:38:47.192Z,9.35
2023-03-16T09:43:55.151Z,9.6
2023-03-16T09:48:54.664Z,10.07
2023-03-16T09:53:54.399Z,10.29
2023-03-16T09:58:53.136Z,10.17
2023-03-16T10:03:53.506Z,10.43
2023-03-16T10:08:53.301Z,10.43
2023-03-16T10:13:54.287Z,10.86
2023-03-16T10:18:51.497Z,10.87
2023-03-16T10:23:51.469Z,11.16
2023-03-16T10:28:52.107Z,11.25
2023-03-16T10:33:39.019Z,11.49
2023-03-16T10:38:39.371Z,11.85
2023-03-16T10:43:38.906Z,12.01
2023-03-16T10:48:37.867Z,12.29
2023-03-16T10:53:36.624Z,12.56
2023-03-16T10:58:36.826Z,12.76
2023-03-16T10:59:58.760Z,12.68
2023-03-16T11:05:10.072Z,12.95
2023-03-16T11:23:00.713Z,12.69
2023-03-16T11:29:37.978Z,12.49
2023-03-16T11:33:55.317Z,12.54
2023-03-16T11:38:55.782Z,12.72
2023-03-16T11:43:54.643Z,12.73
2023-03-16T11:48:56.224Z,12.57
2023-03-16T11:53:53.163Z,12.47
2023-03-16T11:58:52.781Z,12.5
2023-03-16T12:03:54.294Z,12.41
2023-03-16T12:08:51.255Z,12.51
2023-03-16T12:13:51.187Z,12.98
2023-03-16T12:18:51.824Z,13.46
2023-03-16T12:23:39.551Z,13.8
2023-03-16T12:28:39.628Z,14.27
2023-03-16T12:33:39.012Z,14.7
2023-03-16T12:38:39.000Z,14.97
2023-03-16T12:43:38.315Z,15.01
2023-03-16T12:48:38.185Z,15.13
2023-03-16T12:53:38.146Z,14.58
2023-03-16T12:58:37.749Z,14.71
2023-03-16T12:59:58.882Z,14.79
2023-03-16T13:04:58.903Z,15.17
2023-03-16T13:09:58.338Z,15.31
2023-03-16T13:14:59.653Z,14.97
2023-03-16T13:19:55.568Z,15.5
2023-03-16T13:24:55.468Z,15.53
2023-03-16T13:29:54.822Z,15.28
2023-03-16T13:34:54.839Z,15.4
2023-03-16T13:39:52.063Z,15.16
2023-03-16T13:44:51.725Z,15.25
2023-03-16T13:49:52.060Z,15.67
2023-03-16T13:54:52.099Z,15.54
2023-03-16T13:58:57.602Z,15.67
2023-03-16T14:03:57.150Z,15.65
2023-03-16T14:08:57.023Z,16.02
2023-03-16T14:13:56.519Z,15.92
2023-03-16T14:18:57.585Z,15.76
2023-03-16T14:23:53.653Z,15.18
2023-03-16T14:28:53.324Z,15.04
2023-03-16T14:33:53.414Z,15.03
2023-03-16T14:38:52.374Z,15.03
2023-03-16T14:43:52.016Z,15.08
2023-03-16T14:48:52.708Z,15.2
2023-03-16T14:53:52.109Z,15.21
2023-03-16T14:58:51.731Z,15.14
2023-03-16T15:03:51.426Z,14.9
2023-03-16T15:08:50.955Z,14.79
2023-03-16T15:13:52.033Z,14.65
2023-03-16T15:18:48.068Z,14.53
2023-03-16T15:23:47.854Z,14.33
2023-03-16T15:28:47.159Z,14.11
2023-03-16T15:33:46.791Z,13.94
2023-03-16T15:38:54.679Z,13.74
2023-03-16T15:43:53.848Z,13.69
2023-03-16T15:48:54.075Z,13.65
2023-03-16T15:53:52.557Z,13.62
2023-03-16T15:58:52.751Z,13.54
2023-03-16T16:00:14.039Z,13.51
2023-03-16T16:05:13.163Z,13.41
2023-03-16T16:10:12.499Z,13.28
2023-03-16T16:15:12.596Z,13.08
2023-03-16T16:20:11.883Z,12.89
2023-03-16T16:25:10.121Z,12.67
2023-03-16T16:30:09.781Z,12.5
2023-03-16T16:35:10.065Z,12.45
2023-03-16T16:40:09.307Z,12.32
2023-03-16T16:45:08.754Z,12.17
2023-03-16T16:50:07.955Z,12
2023-03-16T16:55:08.089Z,11.86
2023-03-16T16:59:28.787Z,11.81
2023-03-16T17:04:30.048Z,11.77
2023-03-16T17:09:26.848Z,11.73
2023-03-16T17:14:26.429Z,11.62
2023-03-16T17:19:25.866Z,11.41
2023-03-16T17:24:25.478Z,11.2
2023-03-16T17:29:22.874Z,11.08
2023-03-16T17:34:23.137Z,10.9
2023-03-16T17:39:22.656Z,10.77
2023-03-16T17:44:23.756Z,10.61
2023-03-16T17:49:20.214Z,10.5
2023-03-16T17:54:19.868Z,10.43
2023-03-16T17:59:07.393Z,10.36
2023-03-16T18:04:06.957Z,10.28
2023-03-16T18:09:06.042Z,10.18
2023-03-16T18:14:06.430Z,10.07
2023-03-16T18:19:05.566Z,9.99
2023-03-16T18:24:06.684Z,9.82
2023-03-16T18:29:02.779Z,9.6
2023-03-16T18:34:02.629Z,9.39
2023-03-16T18:39:02.173Z,9.18
2023-03-16T18:44:01.845Z,8.97
2023-03-16T18:48:59.328Z,8.81
2023-03-16T18:53:58.785Z,8.6
2023-03-16T18:58:56.432Z,8.41
2023-03-16T19:03:57.937Z,8.31
2023-03-16T19:08:55.260Z,8.22
2023-03-16T19:13:54.976Z,8.12
2023-03-16T19:18:56.584Z,7.95
2023-03-16T19:23:53.883Z,7.68
2023-03-16T19:28:53.782Z,7.46
2023-03-16T19:33:55.236Z,7.25
2023-03-16T19:38:51.891Z,7.06
2023-03-16T19:43:51.291Z,6.85
2023-03-16T19:48:51.377Z,6.7
2023-03-16T19:53:38.954Z,6.53
2023-03-16T19:58:38.876Z,6.37
2023-03-16T20:03:38.057Z,6.24
2023-03-16T20:08:37.760Z,6.11
2023-03-16T20:13:36.750Z,6.02
2023-03-16T20:18:36.477Z,5.93
2023-03-16T20:23:36.241Z,5.76
2023-03-16T20:28:35.832Z,5.6
2023-03-16T20:33:36.607Z,5.48
2023-03-16T20:38:32.830Z,5.45
2023-03-16T20:43:32.955Z,5.39
2023-03-16T20:48:32.746Z,5.35
2023-03-16T20:53:32.086Z,5.28
2023-03-16T20:58:31.478Z,5.31
2023-03-16T20:59:52.822Z,5.28
2023-03-16T21:04:52.411Z,5.25
2023-03-16T21:09:53.352Z,5.24
2023-03-16T21:14:49.639Z,5.18
2023-03-16T21:19:49.571Z,5.12
2023-03-16T21:24:49.002Z,5.04
2023-03-16T21:29:48.950Z,4.98
2023-03-16T21:34:56.800Z,4.94
2023-03-16T21:39:56.389Z,4.83
2023-03-16T21:44:56.504Z,4.76
2023-03-16T21:49:54.971Z,4.69
2023-03-16T21:54:55.054Z,4.57
2023-03-16T21:58:51.669Z,4.46
2023-03-16T22:03:51.932Z,4.36
2023-03-16T22:08:49.128Z,4.26
2023-03-16T22:13:48.829Z,4.14
2023-03-16T22:18:48.691Z,4.06
2023-03-16T22:23:50.244Z,4.04
2023-03-16T22:28:57.139Z,3.97
2023-03-16T22:33:56.513Z,3.92
2023-03-16T22:38:56.984Z,3.85
2023-03-16T22:43:54.760Z,3.8
2023-03-16T22:48:54.449Z,3.76
2023-03-16T22:53:54.258Z,3.72
2023-03-16T22:58:53.032Z,3.67
2023-03-16T23:03:53.281Z,3.67
2023-03-16T23:08:53.464Z,3.67
2023-03-16T23:13:54.978Z,3.69
2023-03-16T23:18:52.099Z,3.67
2023-03-16T23:24:02.887Z,3.64
2023-03-16T23:28:52.777Z,3.65
2023-03-16T23:33:39.694Z,3.62
2023-03-16T23:38:39.604Z,3.59
2023-03-16T23:43:39.077Z,3.58
2023-03-16T23:48:38.597Z,3.55
2023-03-16T23:53:35.965Z,3.57
2023-03-16T23:58:35.665Z,3.54
2023-03-16T23:59:57.046Z,3.5
